ADDS METAR Data INFO
IDs: Format: Raw Decoded Include TAF

Data at: 1634 UTC 22 Jul 2017

K82V 221615Z AUTO 10007G15KT 10SM CLR 28/06 A3019 RMK AO2
K82V 221555Z AUTO 05006KT 10SM CLR 28/07 A3019 RMK AO2
K82V 221535Z AUTO 36010KT 10SM CLR 27/08 A3019 RMK AO2
K82V 221515Z AUTO 35012KT 10SM CLR 26/08 A3019 RMK AO2
K82V 221455Z AUTO 35011KT 10SM CLR 26/08 A3018 RMK AO2
K82V 221435Z AUTO 33012G17KT 10SM CLR 25/08 A3018 RMK AO2
K82V 221415Z AUTO 33012KT 10SM CLR 24/08 A3017 RMK AO2
K82V 221355Z AUTO 34007KT 10SM CLR 22/08 A3016 RMK AO2
K82V 221335Z AUTO 33007KT 10SM CLR 21/09 A3015 RMK AO2
K82V 221315Z AUTO 00000KT 10SM CLR 19/11 A3014 RMK AO2
K82V 221255Z AUTO 32004KT 10SM CLR 16/11 A3013 RMK AO2
K82V 221235Z AUTO 34003KT 10SM CLR 15/11 A3013 RMK AO2
K82V 221215Z AUTO 11003KT 10SM CLR 13/12 A3012 RMK AO2
K82V 221155Z AUTO 00000KT 10SM CLR 13/11 A3012 RMK AO2
K82V 221135Z AUTO 28004KT 10SM CLR 13/12 A3012 RMK AO2
K82V 221115Z AUTO 27005KT 10SM CLR 13/12 A3012 RMK AO2
K82V 221055Z AUTO 28006KT 10SM CLR 13/12 A3012 RMK AO2
K82V 221035Z AUTO 28006KT 10SM CLR 13/12 A3012 RMK AO2
K82V 221015Z AUTO 27006KT 10SM CLR 15/13 A3013 RMK AO2
K82V 220955Z AUTO 27007KT 10SM CLR 15/13 A3013 RMK AO2
K82V 220935Z AUTO 25005KT 10SM CLR 16/13 A3015 RMK AO2
K82V 220915Z AUTO 26005KT 10SM CLR 16/13 A3017 RMK AO2
K82V 220855Z AUTO 27006KT 10SM CLR 17/13 A3016 RMK AO2
K82V 220835Z AUTO 26004KT 10SM CLR 17/12 A3017 RMK AO2
K82V 220815Z AUTO 22004KT 10SM CLR 18/12 A3017 RMK AO2 PWINO
K82V 220755Z AUTO 18007KT 10SM CLR 19/11 A3018 RMK AO2 PWINO
K82V 220735Z AUTO 18009KT 10SM CLR 20/11 A3017 RMK AO2 PWINO
K82V 220715Z AUTO 17011G17KT 10SM CLR 20/11 A3017 RMK AO2 PWINO
K82V 220655Z AUTO 17008KT 10SM SCT120 20/10 A3019 RMK AO2 PWINO
K82V 220635Z AUTO 18008KT 10SM SCT120 20/10 A3019 RMK AO2 PWINO
K82V 220615Z AUTO 18010KT 10SM CLR 19/11 A3018 RMK AO2 PWINO
K82V 220555Z AUTO 17009KT 10SM CLR 19/11 A3018 RMK AO2 PWINO
K82V 220535Z AUTO 17008KT 10SM CLR 19/11 A3018 RMK AO2 PWINO
K82V 220515Z AUTO 20005KT 10SM CLR 20/10 A3018 RMK AO2 PWINO
K82V 220455Z AUTO 25012G17KT 10SM CLR 20/10 A3017 RMK AO2 PWINO
K82V 220435Z AUTO 25011KT 10SM CLR 20/10 A3018 RMK AO2 PWINO
K82V 220415Z AUTO 27012KT 10SM CLR 20/10 A3019 RMK AO2 PWINO
K82V 220355Z AUTO 29015KT 10SM CLR 20/10 A3020 RMK AO2 PWINO
K82V 220335Z AUTO 30022G30KT 10SM CLR 20/11 A3019 RMK AO2 LTG DSNT SE PWINO
K82V 220315Z AUTO 29024G32KT 10SM SCT100 20/11 A3018 RMK AO2 LTG DSNT SE PWINO
K82V 220255Z AUTO 30024G36KT 10SM -RA OVC100 20/11 A3018 RMK AO2
K82V 220235Z AUTO 30024G34KT 10SM RA OVC110 22/10 A3018 RMK AO2 LTG DSNT NW
K82V 220215Z AUTO 27007KT 10SM BKN120 25/08 A3015 RMK AO2
K82V 220155Z AUTO 28006KT 10SM SCT120 25/08 A3012 RMK AO2
K82V 220135Z AUTO 30007KT 10SM SCT065 SCT095 BKN120 26/08 A3011 RMK AO2 LTG DSNT SE
K82V 220115Z AUTO 29009KT 10SM SCT055 SCT085 BKN110 26/08 A3009 RMK AO2 LTG DSNT SE
K82V 220055Z AUTO 29009KT 10SM SCT120 27/07 A3009 RMK AO2 LTG DSNT S
K82V 220035Z AUTO 28011KT 10SM SCT110 27/07 A3008 RMK AO2
K82V 220015Z AUTO 30012G19KT 10SM SCT110 27/08 A3009 RMK AO2 LTG DSNT SW
K82V 212355Z AUTO 02005KT 10SM SCT120 29/04 A3008 RMK AO2
K82V 212335Z AUTO 05006KT 10SM SCT120 30/03 A3008 RMK AO2
K82V 212315Z AUTO 02008KT 10SM BKN120 30/04 A3009 RMK AO2
K82V 212255Z AUTO 03008KT 10SM CLR 30/05 A3008 RMK AO2
K82V 212235Z AUTO 05008G14KT 10SM CLR 31/06 A3007 RMK AO2
K82V 212215Z AUTO 36006KT 10SM CLR 31/06 A3007 RMK AO2 LTG DSNT W
K82V 212155Z AUTO 02004G10KT 10SM CLR 33/02 A3008 RMK AO2
K82V 212135Z AUTO 36007KT 10SM CLR 33/03 A3007 RMK AO2
K82V 212115Z AUTO 05009G15KT 10SM CLR 33/05 A3008 RMK AO2
K82V 212055Z AUTO 01014G17KT 10SM CLR 33/06 A3008 RMK AO2
K82V 212035Z AUTO 01005KT 10SM CLR 33/05 A3008 RMK AO2
K82V 212015Z AUTO 04010G15KT 10SM CLR 34/06 A3009 RMK AO2
K82V 211955Z AUTO 04006G14KT 10SM CLR 33/04 A3010 RMK AO2
K82V 211935Z AUTO 01006G14KT 10SM CLR 33/02 A3010 RMK AO2 LTG DSNT SW
K82V 211915Z AUTO 36011G15KT 10SM CLR 32/04 A3010 RMK AO2
K82V 211855Z AUTO 33007G18KT 10SM CLR 31/03 A3011 RMK AO2
K82V 211835Z AUTO 02006G14KT 10SM CLR 32/03 A3012 RMK AO2
K82V 211815Z AUTO 36011G17KT 10SM CLR 31/02 A3012 RMK AO2
K82V 211755Z AUTO 02008KT 10SM CLR 32/03 A3011 RMK AO2
K82V 211735Z AUTO 36013G18KT 10SM CLR 32/03 A3012 RMK AO2
K82V 211715Z AUTO 33010G18KT 10SM CLR 32/04 A3011 RMK AO2
K82V 211655Z AUTO 34010G19KT 10SM CLR 31/05 A3012 RMK AO2
K82V 211635Z AUTO 31010G15KT 10SM CLR 30/06 A3011 RMK AO2
K82V 211615Z AUTO 32010KT 10SM CLR 30/07 A3011 RMK AO2
K82V 211555Z AUTO 34012G15KT 10SM CLR 29/08 A3011 RMK AO2
K82V 211535Z AUTO 29009KT 10SM CLR 28/09 A3011 RMK AO2
K82V 211515Z AUTO 28010G15KT 10SM CLR 28/09 A3011 RMK AO2
K82V 211455Z AUTO 25007KT 10SM CLR 27/09 A3011 RMK AO2
K82V 211435Z AUTO 26007KT 10SM CLR 26/10 A3010 RMK AO2
K82V 211415Z AUTO 24008KT 10SM CLR 25/10 A3010 RMK AO2
K82V 211355Z AUTO 24006KT 10SM CLR 22/12 A3010 RMK AO2
K82V 211335Z AUTO 20005KT 10SM CLR 21/12 A3010 RMK AO2
K82V 211315Z AUTO 15003KT 10SM CLR 18/12 A3010 RMK AO2
K82V 211255Z AUTO 22005KT 10SM CLR 16/13 A3009 RMK AO2
K82V 211235Z AUTO 19005KT 10SM CLR 15/13 A3008 RMK AO2
K82V 211215Z AUTO 19006KT 10SM CLR 14/12 A3007 RMK AO2
K82V 211155Z AUTO 18005KT 10SM CLR 15/12 A3007 RMK AO2
K82V 211135Z AUTO 21004KT 10SM CLR 15/12 A3007 RMK AO2
K82V 211115Z AUTO 22003KT 10SM CLR 15/12 A3007 RMK AO2
K82V 211055Z AUTO 00000KT 10SM CLR 15/13 A3007 RMK AO2
K82V 211035Z AUTO 14005KT 10SM CLR 15/12 A3007 RMK AO2
K82V 211015Z AUTO 26005KT 10SM CLR 15/12 A3007 RMK AO2
K82V 210955Z AUTO 00000KT 10SM CLR 15/12 A3008 RMK AO2
K82V 210935Z AUTO 22004KT 10SM CLR 15/12 A3009 RMK AO2
K82V 210915Z AUTO 00000KT 10SM CLR 16/12 A3010 RMK AO2
K82V 210855Z AUTO 00000KT 10SM CLR 15/12 A3011 RMK AO2
K82V 210835Z AUTO 32004KT 10SM CLR 16/12 A3011 RMK AO2 PWINO
K82V 210815Z AUTO 36003KT 10SM CLR 17/12 A3012 RMK AO2 PWINO
K82V 210755Z AUTO 35007KT 10SM CLR 18/12 A3012 RMK AO2 PWINO
K82V 210735Z AUTO 35010KT 10SM CLR 18/12 A3011 RMK AO2
K82V 210715Z AUTO 34015G18KT 10SM CLR 20/12 A3012 RMK AO2
K82V 210655Z AUTO 35013G24KT 10SM CLR 21/12 A3011 RMK AO2
K82V 210635Z AUTO 34012G16KT 10SM CLR 20/10 A3011 RMK AO2
K82V 210615Z AUTO 18003KT 10SM CLR 22/09 A3007 RMK AO2
K82V 210555Z AUTO 00000KT 10SM CLR 21/10 A3008 RMK AO2 PWINO
K82V 210535Z AUTO 27005KT 10SM CLR 22/08 A3007 RMK AO2 PWINO
K82V 210515Z AUTO 28008KT 10SM CLR 23/08 A3008 RMK AO2
K82V 210455Z AUTO 27013G18KT 10SM CLR 24/08 A3010 RMK AO2
K82V 210435Z AUTO 28012G18KT 10SM SCT080 25/08 A3011 RMK AO2